Hunter, Arkansas
Current Conditions -  °F | °C
As of 5:56 AM on Friday 19 Dec 2014 (Local Time) from KSRC Reporting Station
Haze Haze  
Wind Chill: 37°   Ceiling: 900
Heat Index: 40°   Visibility: 6mi
Dew Point: 38°   Wind: 5mph
Humidity: 93%   Direction: 30°NNE
Pressure: 30.26"   Gusts: NA
Location:  35.05°N, 91.13°W
Report Text: KSRC 191156Z AUTO 03004KT 6SM BR OVC009 04/03 A3026 RMK AO2 CIG 007V013 SLP253 T00440033 10050 20039 51008 TSNO
Loading
Personal Weather Stations






























Interactive Weather Map New forecast layout! Learn more

10-Day Weather Forecast

Advertisements
Track Severe Weather on mobile